createdAt,value
2019-03-11T00:01:48.385Z,18.60
2019-03-11T00:04:17.380Z,18.60
2019-03-11T00:06:45.975Z,19.10
2019-03-11T00:09:13.983Z,17.93
2019-03-11T00:11:41.985Z,17.50
2019-03-11T00:14:09.970Z,18.50
2019-03-11T00:16:37.949Z,17.37
2019-03-11T00:19:05.914Z,20.77
2019-03-11T00:21:33.867Z,15.33
2019-03-11T00:24:01.830Z,23.23
2019-03-11T00:26:29.789Z,15.37
2019-03-11T00:28:57.738Z,17.60
2019-03-11T00:31:25.775Z,16.83
2019-03-11T00:33:53.684Z,17.77
2019-03-11T00:36:21.636Z,17.97
2019-03-11T00:38:57.254Z,20.53
2019-03-11T00:41:25.177Z,16.73
2019-03-11T00:43:53.150Z,23.90
2019-03-11T00:46:21.149Z,17.07
2019-03-11T00:48:49.112Z,18.20
2019-03-11T00:51:17.128Z,24.05
2019-03-11T00:53:45.094Z,20.07
2019-03-11T00:56:13.051Z,16.75
2019-03-11T00:58:41.023Z,25.80
2019-03-11T01:01:08.990Z,18.60
2019-03-11T01:03:36.978Z,17.53
2019-03-11T01:06:04.895Z,19.77
2019-03-11T01:08:32.855Z,17.73
2019-03-11T01:11:00.809Z,23.00
2019-03-11T01:13:28.788Z,20.80
2019-03-11T01:15:56.751Z,17.93
2019-03-11T01:18:24.980Z,18.17
2019-03-11T01:20:52.933Z,19.27
2019-03-11T01:23:20.907Z,20.20
2019-03-11T01:25:48.855Z,21.37
2019-03-11T01:28:16.836Z,18.53
2019-03-11T01:30:44.777Z,17.80
2019-03-11T01:33:12.716Z,12.60
2019-03-11T01:35:40.681Z,13.53
2019-03-11T01:38:08.611Z,20.27
2019-03-11T01:40:36.565Z,13.27
2019-03-11T01:43:04.470Z,15.00
2019-03-11T01:45:32.416Z,10.17
2019-03-11T01:48:00.404Z,16.27
2019-03-11T01:50:28.344Z,10.10
2019-03-11T01:52:56.296Z,12.00
2019-03-11T01:55:24.231Z,10.17
2019-03-11T01:57:52.133Z,12.47
2019-03-11T02:00:20.049Z,11.47
2019-03-11T02:02:47.964Z,17.33
2019-03-11T02:05:15.936Z,11.17
2019-03-11T02:07:43.872Z,12.27
2019-03-11T02:10:12.304Z,13.90
2019-03-11T02:12:40.271Z,12.67
2019-03-11T02:15:08.832Z,11.60
2019-03-11T02:17:36.732Z,12.60
2019-03-11T02:20:04.837Z,12.93
2019-03-11T02:22:32.808Z,11.77
2019-03-11T02:25:00.814Z,11.67
2019-03-11T02:27:28.765Z,10.63
2019-03-11T02:29:56.706Z,9.47
2019-03-11T02:32:24.714Z,11.67
2019-03-11T02:34:52.650Z,10.40
2019-03-11T02:37:20.654Z,11.40
2019-03-11T02:39:48.638Z,9.57
2019-03-11T02:42:16.617Z,8.47
2019-03-11T02:44:44.523Z,8.60
2019-03-11T02:47:12.517Z,9.03
2019-03-11T02:49:43.734Z,8.13
2019-03-11T02:52:10.055Z,7.80
2019-03-11T02:54:38.031Z,8.03
2019-03-11T02:57:06.015Z,7.83
2019-03-11T02:59:33.953Z,6.57
2019-03-11T03:02:32.744Z,7.77
2019-03-11T03:05:28.627Z,7.03
2019-03-11T03:07:56.582Z,7.63
2019-03-11T03:10:24.539Z,7.03
2019-03-11T03:12:52.469Z,6.47
2019-03-11T03:15:20.406Z,6.07
2019-03-11T03:17:48.332Z,6.93
2019-03-11T03:20:16.272Z,7.20
2019-03-11T03:22:44.223Z,6.63
2019-03-11T03:25:12.152Z,8.07
2019-03-11T03:27:40.115Z,7.80
2019-03-11T03:30:09.503Z,8.63
2019-03-11T03:32:37.414Z,8.03
2019-03-11T03:35:05.637Z,8.23
2019-03-11T03:37:33.615Z,10.57
2019-03-11T03:40:01.662Z,9.67
2019-03-11T03:42:29.620Z,12.33
2019-03-11T03:45:35.006Z,13.20
2019-03-11T03:48:02.942Z,12.83
2019-03-11T03:50:31.640Z,13.97
2019-03-11T03:52:59.626Z,11.57
2019-03-11T03:55:27.601Z,13.80
2019-03-11T03:57:55.524Z,14.77
2019-03-11T04:00:23.448Z,16.77
2019-03-11T04:02:51.399Z,11.67
2019-03-11T04:05:19.413Z,13.83
2019-03-11T04:07:47.392Z,12.77
2019-03-11T04:10:15.351Z,13.27
2019-03-11T04:12:43.307Z,12.67
2019-03-11T04:15:11.228Z,13.73
2019-03-11T04:17:39.193Z,13.97
2019-03-11T04:20:08.355Z,13.80
2019-03-11T04:22:36.414Z,16.37
2019-03-11T04:25:04.395Z,14.20
2019-03-11T04:27:32.353Z,15.77
2019-03-11T04:30:00.391Z,12.40
2019-03-11T04:32:28.268Z,12.73
2019-03-11T04:34:56.231Z,12.77
2019-03-11T04:37:24.202Z,12.77
2019-03-11T04:39:52.153Z,12.03
2019-03-11T04:42:20.253Z,19.23
2019-03-11T04:44:48.193Z,14.57
2019-03-11T04:47:16.164Z,13.40
2019-03-11T04:49:44.157Z,11.27
2019-03-11T04:52:12.131Z,15.37
2019-03-11T04:54:40.095Z,14.07
2019-03-11T04:57:08.054Z,12.27
2019-03-11T04:59:36.077Z,14.93
2019-03-11T05:02:03.967Z,11.30
2019-03-11T05:04:31.948Z,13.23
2019-03-11T05:06:59.898Z,7.77
2019-03-11T05:09:27.886Z,9.67
2019-03-11T05:11:55.811Z,9.77
2019-03-11T05:14:23.797Z,11.00
2019-03-11T05:16:51.825Z,11.73
2019-03-11T05:19:19.722Z,11.03
2019-03-11T05:21:47.677Z,16.43
2019-03-11T05:24:15.648Z,15.67
2019-03-11T05:26:43.631Z,12.53
2019-03-11T05:29:11.746Z,13.90
2019-03-11T05:31:39.713Z,16.10
2019-03-11T05:34:07.671Z,10.83
2019-03-11T05:36:35.639Z,11.25
2019-03-11T05:39:03.892Z,14.57
2019-03-11T05:41:31.893Z,13.70
2019-03-11T05:43:59.851Z,16.30
2019-03-11T05:46:27.867Z,15.00
2019-03-11T05:48:55.838Z,24.27
2019-03-11T05:51:31.487Z,16.27
2019-03-11T05:53:53.467Z,15.30
2019-03-11T05:56:21.485Z,19.07
2019-03-11T05:58:49.484Z,15.33
2019-03-11T06:01:17.449Z,14.07
2019-03-11T06:03:45.446Z,16.13
2019-03-11T06:06:14.297Z,16.87
2019-03-11T06:08:42.353Z,12.20
2019-03-11T06:11:10.308Z,14.97
2019-03-11T06:13:38.340Z,12.10
2019-03-11T06:16:06.313Z,12.43
2019-03-11T06:18:59.220Z,14.77
2019-03-11T06:21:49.162Z,16.00
2019-03-11T06:24:17.163Z,17.23
2019-03-11T06:26:45.185Z,12.50
2019-03-11T06:29:13.213Z,18.02
2019-03-11T06:31:41.192Z,19.53
2019-03-11T06:34:09.196Z,11.67
2019-03-11T06:36:37.335Z,15.33
2019-03-11T06:39:07.025Z,13.27
2019-03-11T06:41:35.011Z,18.40
2019-03-11T06:44:03.023Z,13.30
2019-03-11T06:46:31.169Z,18.03
2019-03-11T06:48:59.167Z,14.87
2019-03-11T06:51:27.204Z,15.90
2019-03-11T06:53:55.169Z,13.20
2019-03-11T06:56:23.267Z,14.10
2019-03-11T06:58:51.191Z,9.67
2019-03-11T07:01:19.273Z,15.17
2019-03-11T07:03:47.202Z,17.33
2019-03-11T07:06:15.223Z,15.47
2019-03-11T07:08:43.176Z,13.48
2019-03-11T07:11:11.126Z,13.03
2019-03-11T07:13:39.085Z,15.33
2019-03-11T07:16:09.372Z,13.97
2019-03-11T07:18:36.693Z,12.63
2019-03-11T07:21:04.677Z,13.37
2019-03-11T07:23:32.602Z,14.03
2019-03-11T07:26:00.616Z,10.27
2019-03-11T07:28:28.619Z,18.90
2019-03-11T07:30:56.684Z,13.23
2019-03-11T07:33:24.673Z,10.67
2019-03-11T07:35:52.706Z,14.40
2019-03-11T07:38:20.704Z,9.00
2019-03-11T07:40:48.786Z,31.97
2019-03-11T07:43:16.772Z,12.53
2019-03-11T07:45:44.769Z,10.37
2019-03-11T07:48:12.851Z,15.50
2019-03-11T07:50:40.756Z,11.43
2019-03-11T07:53:08.798Z,11.00
2019-03-11T07:55:36.732Z,7.57
2019-03-11T07:58:04.806Z,12.20
2019-03-11T08:00:32.800Z,11.73
2019-03-11T08:03:00.774Z,10.10
2019-03-11T08:05:28.779Z,8.33
2019-03-11T08:07:56.854Z,10.37
2019-03-11T08:10:24.863Z,8.20
2019-03-11T08:12:52.850Z,9.40
2019-03-11T08:15:20.844Z,9.93
2019-03-11T08:17:48.851Z,10.53
2019-03-11T08:20:16.856Z,12.10
2019-03-11T08:22:45.327Z,15.37
2019-03-11T08:25:13.395Z,18.83
2019-03-11T08:27:41.360Z,14.80
2019-03-11T08:30:09.902Z,9.97
2019-03-11T08:32:37.930Z,9.77
2019-03-11T08:35:06.331Z,8.43
2019-03-11T08:37:34.383Z,7.93
2019-03-11T08:40:02.369Z,6.37
2019-03-11T08:42:30.730Z,7.33
2019-03-11T08:44:58.758Z,9.10
2019-03-11T08:47:26.805Z,7.93
2019-03-11T08:49:54.793Z,11.23
2019-03-11T08:52:22.731Z,15.27
2019-03-11T08:54:50.745Z,9.63
2019-03-11T08:57:18.766Z,9.53
2019-03-11T08:59:46.672Z,10.20
2019-03-11T09:02:15.054Z,9.70
2019-03-11T09:04:43.203Z,8.03
2019-03-11T09:07:11.249Z,12.03
2019-03-11T09:09:39.341Z,10.83
2019-03-11T09:12:07.335Z,8.60
2019-03-11T09:14:35.362Z,10.63
2019-03-11T09:17:03.378Z,10.30
2019-03-11T09:19:31.403Z,8.67
2019-03-11T09:21:59.473Z,10.97
2019-03-11T09:24:27.532Z,8.90
2019-03-11T09:26:56.376Z,9.33
2019-03-11T09:29:24.457Z,14.10
2019-03-11T09:31:52.457Z,11.43
2019-03-11T09:34:20.398Z,7.97
2019-03-11T09:36:48.469Z,15.63
2019-03-11T09:39:16.557Z,14.97
2019-03-11T09:41:44.578Z,7.23
2019-03-11T09:44:12.677Z,12.80
2019-03-11T09:46:40.746Z,5.20
2019-03-11T09:49:08.734Z,10.37
2019-03-11T09:51:36.737Z,10.07
2019-03-11T09:54:04.713Z,8.67
2019-03-11T09:56:42.670Z,8.13
2019-03-11T09:59:02.685Z,13.13
2019-03-11T10:01:30.657Z,7.87
2019-03-11T10:03:58.732Z,10.03
2019-03-11T10:06:26.907Z,7.43
2019-03-11T10:08:54.912Z,6.60
2019-03-11T10:11:23.034Z,8.33
2019-03-11T10:13:51.041Z,9.77
2019-03-11T10:16:19.087Z,9.20
2019-03-11T10:18:47.068Z,8.60
2019-03-11T10:21:15.288Z,7.87
2019-03-11T10:23:43.256Z,7.13
2019-03-11T10:26:11.241Z,7.00
2019-03-11T10:28:39.294Z,11.47
2019-03-11T10:31:07.285Z,6.30
2019-03-11T10:33:35.248Z,9.00
2019-03-11T10:36:03.281Z,10.90
2019-03-11T10:38:31.479Z,7.63
2019-03-11T10:40:59.404Z,6.50
2019-03-11T10:43:27.463Z,6.90
2019-03-11T10:45:55.440Z,7.03
2019-03-11T10:48:23.395Z,9.50
2019-03-11T10:50:51.589Z,10.60
2019-03-11T10:53:19.699Z,9.00
2019-03-11T10:55:47.745Z,6.73
2019-03-11T10:58:15.680Z,8.60
2019-03-11T11:00:43.665Z,9.40
2019-03-11T11:03:11.680Z,6.97
2019-03-11T11:05:39.739Z,9.77
2019-03-11T11:08:07.688Z,8.33
2019-03-11T11:10:35.730Z,12.07
2019-03-11T11:13:03.656Z,6.40
2019-03-11T11:15:31.646Z,7.08
2019-03-11T11:17:59.715Z,6.87
2019-03-11T11:20:27.701Z,6.70
2019-03-11T11:22:55.625Z,6.10
2019-03-11T11:25:23.665Z,8.33
2019-03-11T11:27:51.769Z,9.70
2019-03-11T11:30:20.258Z,7.60
2019-03-11T11:32:48.240Z,4.28
2019-03-11T11:35:16.364Z,7.90
2019-03-11T11:37:44.354Z,13.98
2019-03-11T11:40:13.149Z,7.80
2019-03-11T11:42:41.073Z,10.00
2019-03-11T11:45:09.640Z,12.67
2019-03-11T11:47:37.661Z,39.57
2019-03-11T11:50:06.108Z,10.90
2019-03-11T11:52:34.109Z,14.63
2019-03-11T11:55:02.083Z,16.10
2019-03-11T11:57:30.090Z,14.20
2019-03-11T11:59:58.027Z,22.17
2019-03-11T12:02:26.128Z,14.30
2019-03-11T12:04:54.133Z,7.47
2019-03-11T12:07:22.489Z,9.43
2019-03-11T12:09:50.580Z,13.67
2019-03-11T12:12:18.595Z,8.20
2019-03-11T12:14:46.564Z,9.70
2019-03-11T12:17:14.610Z,10.17
2019-03-11T12:19:42.698Z,8.47
2019-03-11T12:22:10.729Z,5.97
2019-03-11T12:24:38.760Z,7.53
2019-03-11T12:27:06.733Z,6.10
2019-03-11T12:29:34.746Z,7.77
2019-03-11T12:32:02.744Z,3.23
2019-03-11T12:34:30.717Z,5.97
2019-03-11T12:36:58.738Z,5.87
2019-03-11T12:39:26.719Z,5.40
2019-03-11T12:41:54.687Z,5.13
2019-03-11T12:44:22.655Z,2.30
2019-03-11T12:46:50.734Z,4.87
2019-03-11T12:49:18.687Z,6.00
2019-03-11T12:51:50.047Z,7.10
2019-03-11T12:54:16.373Z,4.00
2019-03-11T12:56:44.597Z,6.33
2019-03-11T12:59:13.202Z,7.03
2019-03-11T13:01:41.540Z,4.80
2019-03-11T13:04:10.115Z,5.20
2019-03-11T13:06:38.646Z,5.37
2019-03-11T13:09:07.362Z,5.77
2019-03-11T13:11:36.111Z,4.47
2019-03-11T13:14:04.909Z,6.20
2019-03-11T13:16:34.299Z,4.03
2019-03-11T13:19:12.750Z,5.07
2019-03-11T13:21:34.065Z,6.57
2019-03-11T13:24:02.874Z,4.00
2019-03-11T13:26:31.557Z,5.53
2019-03-11T13:29:02.620Z,4.80
2019-03-11T13:31:33.649Z,3.30
2019-03-11T13:34:01.681Z,3.13
2019-03-11T13:36:29.859Z,3.97
2019-03-11T13:38:58.001Z,2.43
2019-03-11T13:41:26.039Z,3.13
2019-03-11T13:43:54.849Z,4.00
2019-03-11T13:46:23.561Z,7.07
2019-03-11T13:48:51.873Z,1.80
2019-03-11T13:51:20.313Z,3.43
2019-03-11T13:53:48.814Z,17.13
2019-03-11T13:56:17.551Z,3.37
2019-03-11T13:58:45.999Z,3.77
2019-03-11T14:01:14.665Z,3.27
2019-03-11T14:03:43.349Z,2.22
2019-03-11T14:06:11.957Z,4.37
2019-03-11T14:08:40.330Z,3.33
2019-03-11T14:11:08.746Z,3.30
2019-03-11T14:13:37.398Z,2.90
2019-03-11T14:16:09.593Z,2.75
2019-03-11T14:18:38.183Z,4.33
2019-03-11T14:21:07.330Z,3.83
2019-03-11T14:23:35.616Z,5.00
2019-03-11T14:26:03.605Z,4.67
2019-03-11T14:28:31.677Z,3.43
2019-03-11T14:31:00.278Z,3.20
2019-03-11T14:33:28.523Z,1.90
2019-03-11T14:35:57.370Z,1.90
2019-03-11T14:38:25.587Z,3.53
2019-03-11T14:40:53.790Z,4.70
2019-03-11T14:43:22.046Z,4.70
2019-03-11T14:45:50.231Z,5.03
2019-03-11T14:48:18.456Z,2.27
2019-03-11T14:50:46.871Z,2.73
2019-03-11T14:53:15.437Z,3.07
2019-03-11T14:55:43.849Z,2.70
2019-03-11T14:58:13.152Z,2.73
2019-03-11T15:00:41.116Z,3.47
2019-03-11T15:03:09.693Z,4.27
2019-03-11T15:05:38.059Z,2.57
2019-03-11T15:08:06.914Z,5.20
2019-03-11T15:10:34.951Z,4.93
2019-03-11T15:13:03.233Z,4.60
2019-03-11T15:15:31.279Z,3.97
2019-03-11T15:17:59.599Z,3.80
2019-03-11T15:20:27.823Z,4.70
2019-03-11T15:23:05.804Z,4.13
2019-03-11T15:25:25.851Z,4.20
2019-03-11T15:27:54.021Z,6.17
2019-03-11T15:30:22.236Z,4.40
2019-03-11T15:32:50.729Z,5.50
2019-03-11T15:35:20.993Z,8.77
2019-03-11T15:37:49.950Z,3.07
2019-03-11T15:40:18.110Z,5.73
2019-03-11T15:42:46.895Z,2.67
2019-03-11T15:45:15.202Z,2.30
2019-03-11T15:47:47.105Z,5.40
2019-03-11T15:50:18.796Z,2.80
2019-03-11T15:52:47.270Z,6.80
2019-03-11T15:55:15.678Z,3.27
2019-03-11T15:57:44.004Z,5.47
2019-03-11T16:00:13.638Z,6.03
2019-03-11T16:02:41.909Z,6.17
2019-03-11T16:05:10.303Z,5.90
2019-03-11T16:07:38.740Z,6.40
2019-03-11T16:10:16.253Z,5.50
2019-03-11T16:12:38.373Z,4.20
2019-03-11T16:15:06.682Z,3.27
2019-03-11T16:17:35.114Z,7.10
2019-03-11T16:20:03.622Z,9.77
2019-03-11T16:22:32.374Z,4.83
2019-03-11T16:25:00.793Z,3.80
2019-03-11T16:27:29.529Z,5.07
2019-03-11T16:29:57.742Z,3.70
2019-03-11T16:32:25.929Z,3.90
2019-03-11T16:34:54.254Z,5.37
2019-03-11T16:37:22.532Z,4.43
2019-03-11T16:39:51.867Z,3.87
2019-03-11T16:42:20.001Z,4.30
2019-03-11T16:44:48.470Z,6.20
2019-03-11T16:47:19.019Z,6.43
2019-03-11T16:49:47.270Z,8.87
2019-03-11T16:52:15.548Z,3.00
2019-03-11T16:54:44.160Z,8.60
2019-03-11T16:57:12.135Z,3.50
2019-03-11T16:59:40.219Z,4.20
2019-03-11T17:02:08.963Z,5.53
2019-03-11T17:04:37.633Z,5.03
2019-03-11T17:07:06.363Z,8.37
2019-03-11T17:09:34.802Z,3.57
2019-03-11T17:12:03.062Z,6.17
2019-03-11T17:14:31.164Z,4.50
2019-03-11T17:16:59.273Z,6.27
2019-03-11T17:19:28.349Z,13.27
2019-03-11T17:21:56.834Z,5.83
2019-03-11T17:24:24.849Z,6.33
2019-03-11T17:26:53.759Z,10.93
2019-03-11T17:29:21.866Z,5.40
2019-03-11T17:31:50.149Z,7.33
2019-03-11T17:34:18.327Z,7.13
2019-03-11T17:36:46.374Z,6.37
2019-03-11T17:39:14.457Z,3.83
2019-03-11T17:41:42.993Z,8.50
2019-03-11T17:44:12.778Z,4.17
2019-03-11T17:46:40.858Z,8.00
2019-03-11T17:49:08.897Z,4.95
2019-03-11T17:51:39.549Z,5.40
2019-03-11T17:54:07.957Z,3.73
2019-03-11T17:56:35.982Z,11.33
2019-03-11T17:59:04.008Z,2.60
2019-03-11T18:01:32.003Z,2.97
2019-03-11T18:04:01.145Z,6.27
2019-03-11T18:06:29.170Z,5.77
2019-03-11T18:08:57.144Z,3.92
2019-03-11T18:11:25.154Z,6.07
2019-03-11T18:13:53.207Z,2.53
2019-03-11T18:16:21.274Z,4.17
2019-03-11T18:18:49.249Z,2.80
2019-03-11T18:21:17.387Z,2.40
2019-03-11T18:23:45.294Z,2.93
2019-03-11T18:26:13.270Z,2.63
2019-03-11T18:28:41.192Z,2.10
2019-03-11T18:31:10.121Z,2.90
2019-03-11T18:33:39.249Z,3.10
2019-03-11T18:36:07.832Z,2.00
2019-03-11T18:38:35.986Z,2.00
2019-03-11T18:41:04.009Z,3.97
2019-03-11T18:43:42.164Z,3.70
2019-03-11T18:46:01.665Z,2.30
2019-03-11T18:48:29.630Z,2.23
2019-03-11T18:50:57.630Z,2.10
2019-03-11T18:53:25.635Z,2.40
2019-03-11T18:55:53.654Z,1.90
2019-03-11T18:58:21.602Z,4.00
2019-03-11T19:00:49.565Z,2.03
2019-03-11T19:03:17.570Z,2.33
2019-03-11T19:05:45.487Z,2.47
2019-03-11T19:08:13.492Z,2.30
2019-03-11T19:10:41.496Z,2.33
2019-03-11T19:13:09.730Z,2.50
2019-03-11T19:15:38.000Z,3.77
2019-03-11T19:18:05.906Z,2.90
2019-03-11T19:20:33.983Z,2.67
2019-03-11T19:23:01.911Z,2.67
2019-03-11T19:25:29.975Z,2.90
2019-03-11T19:27:57.928Z,3.17
2019-03-11T19:30:26.756Z,2.52
2019-03-11T19:32:54.822Z,2.07
2019-03-11T19:35:22.830Z,3.07
2019-03-11T19:37:50.930Z,2.90
2019-03-11T19:40:18.945Z,3.40
2019-03-11T19:42:46.921Z,3.50
2019-03-11T19:45:15.111Z,3.43
2019-03-11T19:47:43.447Z,4.17
2019-03-11T19:50:11.666Z,3.67
2019-03-11T19:52:39.638Z,5.00
2019-03-11T19:55:07.663Z,4.00
2019-03-11T19:57:35.674Z,4.17
2019-03-11T20:00:03.802Z,5.07
2019-03-11T20:02:31.773Z,4.93
2019-03-11T20:04:59.760Z,5.47
2019-03-11T20:07:30.266Z,4.57
2019-03-11T20:09:57.277Z,5.77
2019-03-11T20:12:25.316Z,5.43
2019-03-11T20:14:53.290Z,5.80
2019-03-11T20:17:21.279Z,8.50
2019-03-11T20:19:49.224Z,7.03
2019-03-11T20:22:17.232Z,6.00
2019-03-11T20:24:45.233Z,5.90
2019-03-11T20:27:13.209Z,6.50
2019-03-11T20:29:41.143Z,8.17
2019-03-11T20:32:09.121Z,5.50
2019-03-11T20:34:37.120Z,6.07
2019-03-11T20:37:05.148Z,5.77
2019-03-11T20:39:33.083Z,5.90
2019-03-11T20:42:01.085Z,4.97
2019-03-11T20:44:29.046Z,6.03
2019-03-11T20:46:57.004Z,5.40
2019-03-11T20:49:24.963Z,5.92
2019-03-11T20:51:52.972Z,5.67
2019-03-11T20:54:20.950Z,5.03
2019-03-11T20:56:48.931Z,5.33
2019-03-11T20:59:16.865Z,4.90
2019-03-11T21:01:44.905Z,4.90
2019-03-11T21:04:12.839Z,4.47
2019-03-11T21:06:40.786Z,6.50
2019-03-11T21:09:09.021Z,4.40
2019-03-11T21:11:36.949Z,4.37
2019-03-11T21:14:04.970Z,4.57
2019-03-11T21:16:32.895Z,4.97
2019-03-11T21:19:00.817Z,4.97
2019-03-11T21:21:28.827Z,5.07
2019-03-11T21:24:02.027Z,4.50
2019-03-11T21:26:26.456Z,4.80
2019-03-11T21:28:54.444Z,5.27
2019-03-11T21:31:22.465Z,5.07
2019-03-11T21:33:58.234Z,5.23
2019-03-11T21:36:20.165Z,5.33
2019-03-11T21:38:48.246Z,5.80
2019-03-11T21:41:16.369Z,7.23
2019-03-11T21:43:44.382Z,6.43
2019-03-11T21:46:12.355Z,6.13
2019-03-11T21:48:40.313Z,7.37
2019-03-11T21:51:08.384Z,7.13
2019-03-11T21:53:36.415Z,6.93
2019-03-11T21:56:04.392Z,5.43
2019-03-11T21:58:32.413Z,6.30
2019-03-11T22:01:00.313Z,6.20
2019-03-11T22:03:28.286Z,5.83
2019-03-11T22:05:56.274Z,9.10
2019-03-11T22:08:24.265Z,6.95
2019-03-11T22:10:52.248Z,7.23
2019-03-11T22:13:20.222Z,6.90
2019-03-11T22:15:48.229Z,6.60
2019-03-11T22:18:16.355Z,7.43
2019-03-11T22:20:44.303Z,6.87
2019-03-11T22:23:12.397Z,7.10
2019-03-11T22:25:40.317Z,7.77
2019-03-11T22:28:08.331Z,7.20
2019-03-11T22:30:36.310Z,9.23
2019-03-11T22:33:04.279Z,8.17
2019-03-11T22:35:32.286Z,8.57
2019-03-11T22:38:00.259Z,8.60
2019-03-11T22:40:28.226Z,10.80
2019-03-11T22:42:56.173Z,8.73
2019-03-11T22:45:24.206Z,7.77
2019-03-11T22:47:52.180Z,7.77
2019-03-11T22:50:20.175Z,10.17
2019-03-11T22:52:48.111Z,8.90
2019-03-11T22:55:16.085Z,7.83
2019-03-11T22:57:44.035Z,10.93
2019-03-11T23:00:13.709Z,9.10
2019-03-11T23:02:41.846Z,8.43
2019-03-11T23:05:09.791Z,8.73
2019-03-11T23:07:37.714Z,8.53
2019-03-11T23:10:05.674Z,8.77
2019-03-11T23:12:33.603Z,9.40
2019-03-11T23:15:01.567Z,9.33
2019-03-11T23:17:29.611Z,9.30
2019-03-11T23:19:57.569Z,9.60
2019-03-11T23:22:25.546Z,9.27
2019-03-11T23:24:53.569Z,10.83
2019-03-11T23:27:21.516Z,10.27
2019-03-11T23:29:49.453Z,11.03
2019-03-11T23:32:17.466Z,13.23
2019-03-11T23:34:45.390Z,12.43
2019-03-11T23:37:13.350Z,12.47
2019-03-11T23:39:41.307Z,12.50
2019-03-11T23:42:09.306Z,14.60
2019-03-11T23:44:37.293Z,10.67
2019-03-11T23:47:05.301Z,14.63
2019-03-11T23:49:33.273Z,11.17
2019-03-11T23:52:01.336Z,11.53
2019-03-11T23:54:29.231Z,12.30
2019-03-11T23:56:57.172Z,14.57
2019-03-11T23:59:25.179Z,15.40
